Armstrong, Texas
Current Conditions -  °F | °C
As of 2:15 AM on Tuesday 21 Oct 2014 (Local Time) from KBKS Reporting Station
Clear Clear  
Wind Chill: 69°   Ceiling: Unl
Heat Index: 69°   Visibility: 7mi
Dew Point: 68°   Wind: 3mph
Humidity: 97%   Direction: 20°NNE
Pressure: 29.95"   Gusts: NA
Location:  26.92°N, 97.79°W
Report Text: KBKS 210715Z AUTO 02003KT 7SM CLR 20/20 A2995 RMK AO1 T02030198
Loading
Personal Weather Stations






























Interactive Weather Map
Tropical Storm Tracking
New forecast layout! Learn more

10-Day Weather Forecast

Advertisements
Track Severe Weather on mobile